Airfield :
LOGIN :

Register | Disclaimer

   EN    FR    IT 

 










Legend :    VFR   Marginal VFR   IFR   Intensive IFR   Very Intensive IFR
Visi :
Ceiling :
>= 8 km
>= 3000ft
5 to 8 km
1000 to 3000 ft
1500m to 5 km
500 to 1000 ft
800 to 1500m
200 to 500 ft
< 800m
< 200 ft
Symbols :   Thunderstorms  Fog  Heavy snow  Heavy precipitations  Wind > 20 kt
SIGMETs :     Misc.  Thunderstorms  Icing  Turbulence  Mountain Waves  Volcanic Ashes







- Airport Elevation : 242 ft
- IATA code : DUB


EIDW - Dublin

CURRENT METAR :
  • 181130Z 26010KT 9999 FEW020 SCT060 BKN070 07/06 Q1023 NOSIG

EXPIRED METARs :
  • 181100Z 26010KT 9999 FEW020 BKN060 07/06 Q1023 NOSIG
  • 181030Z 26009KT 9999 FEW015 BKN050 07/06 Q1023 NOSIG
  • 181000Z 26009KT 9999 FEW005 SCT035 BKN060 07/06 Q1023 NOSIG
  • 180930Z 25008KT 9999 FEW005 SCT032 BKN045 06/06 Q1023 NOSIG

TAF TAF EIDW
Valid from the 18 at 12:00 until the 19 at 12:00 UTC


181100Z 1812/1912 26010KT 9999 FEW020 BKN040
BECMG 1812/1815 29008KT
PROB30
TEMPO 1812/1816 -DZ BKN014
PROB30
TEMPO 1823/1905 0800 FG BKN002
BECMG 1906/1909 VRB03KT
No reported NOTAMs for that airfield.



MET'MAP, your aeronautical weather chart ! - Copyright ORBIFLY December 2007 - Disclaimer

ORBIFLY MET'MAP TEAM :

Programming & Development : Alexandra Zaïnal
Concept & Development : Baudouin d'Aumeries
Co-Development & Prog : Marc-Olivier Méhu
Technical & hardware support : Manuel Goepfert

Contact : metmap@orbifly.com




SOURCES & CREDITS :

   NOAA